createdAt,value
2018-10-21T00:00:43.532Z,78.83
2018-10-21T00:03:13.527Z,78.73
2018-10-21T00:05:43.416Z,79.74
2018-10-21T00:08:13.388Z,80.03
2018-10-21T00:10:43.400Z,79.71
2018-10-21T00:13:13.197Z,79.48
2018-10-21T00:15:43.186Z,80.50
2018-10-21T00:18:13.057Z,80.33
2018-10-21T00:20:42.882Z,79.15
2018-10-21T00:23:12.662Z,80.12
2018-10-21T00:25:42.640Z,80.48
2018-10-21T00:28:12.419Z,80.74
2018-10-21T00:30:42.757Z,81.35
2018-10-21T00:33:12.844Z,80.31
2018-10-21T00:35:42.749Z,81.29
2018-10-21T00:38:12.602Z,81.08
2018-10-21T00:40:42.334Z,81.33
2018-10-21T00:43:12.391Z,81.65
2018-10-21T00:45:42.271Z,81.49
2018-10-21T00:48:12.552Z,82.50
2018-10-21T00:50:42.369Z,82.26
2018-10-21T00:53:12.460Z,82.11
2018-10-21T00:55:42.249Z,81.80
2018-10-21T00:58:12.340Z,80.81
2018-10-21T01:00:42.735Z,80.58
2018-10-21T01:03:12.712Z,80.57
2018-10-21T01:05:42.398Z,79.98
2018-10-21T01:08:12.372Z,80.26
2018-10-21T01:10:42.325Z,79.69
2018-10-21T01:13:12.341Z,79.58
2018-10-21T01:15:42.287Z,79.54
2018-10-21T01:18:12.045Z,80.12
2018-10-21T01:20:41.895Z,80.25
2018-10-21T01:23:11.720Z,79.88
2018-10-21T01:25:41.660Z,79.83
2018-10-21T01:28:11.524Z,79.12
2018-10-21T01:30:41.506Z,78.90
2018-10-21T01:33:11.439Z,78.71
2018-10-21T01:35:41.258Z,79.08
2018-10-21T01:38:11.282Z,78.42
2018-10-21T01:40:42.203Z,78.71
2018-10-21T01:43:14.177Z,79.66
2018-10-21T01:45:44.044Z,79.20
2018-10-21T01:48:15.215Z,79.13
2018-10-21T01:50:45.075Z,78.82
2018-10-21T01:53:15.897Z,78.48
2018-10-21T01:55:45.829Z,79.55
2018-10-21T01:58:15.600Z,79.33
2018-10-21T02:00:45.614Z,79.15
2018-10-21T02:03:15.980Z,79.37
2018-10-21T02:05:46.548Z,80.23
2018-10-21T02:08:16.657Z,79.67
2018-10-21T02:10:46.532Z,79.85
2018-10-21T02:13:16.561Z,79.42
2018-10-21T02:15:46.438Z,79.43
2018-10-21T02:18:16.343Z,79.80
2018-10-21T02:20:46.464Z,78.94
2018-10-21T02:23:16.293Z,79.15
2018-10-21T02:25:46.288Z,79.37
2018-10-21T02:28:16.141Z,79.94
2018-10-21T02:30:45.909Z,80.32
2018-10-21T02:33:15.851Z,80.06
2018-10-21T02:35:45.546Z,80.12
2018-10-21T02:38:15.631Z,80.89
2018-10-21T02:41:30.594Z,80.84
2018-10-21T02:44:00.616Z,80.27
2018-10-21T02:46:30.805Z,79.96
2018-10-21T02:49:02.095Z,80.69
2018-10-21T02:51:31.836Z,80.13
2018-10-21T02:54:01.671Z,79.69
2018-10-21T02:56:31.484Z,79.90
2018-10-21T02:59:01.374Z,79.82
2018-10-21T03:01:31.230Z,80.17
2018-10-21T03:04:01.281Z,80.61
2018-10-21T03:06:31.036Z,80.83
2018-10-21T03:09:00.845Z,80.52
2018-10-21T03:11:30.777Z,80.01
2018-10-21T03:14:00.532Z,80.27
2018-10-21T03:16:30.684Z,80.34
2018-10-21T03:19:01.578Z,80.40
2018-10-21T03:21:31.655Z,79.41
2018-10-21T03:24:01.576Z,79.82
2018-10-21T03:26:31.592Z,80.10
2018-10-21T03:29:01.512Z,80.48
2018-10-21T03:31:31.335Z,81.03
2018-10-21T03:34:01.386Z,81.67
2018-10-21T03:36:31.179Z,80.71
2018-10-21T03:39:01.105Z,80.77
2018-10-21T03:41:30.861Z,80.21
2018-10-21T03:44:00.826Z,80.64
2018-10-21T03:46:30.782Z,80.52
2018-10-21T03:49:00.733Z,79.82
2018-10-21T03:51:30.554Z,80.72
2018-10-21T03:54:00.589Z,80.49
2018-10-21T03:56:30.545Z,80.65
2018-10-21T03:59:01.400Z,80.29
2018-10-21T04:01:31.180Z,79.58
2018-10-21T04:04:01.196Z,78.80
2018-10-21T04:06:31.035Z,79.99
2018-10-21T04:09:01.002Z,80.31
2018-10-21T04:11:30.973Z,79.30
2018-10-21T04:14:00.772Z,79.75
2018-10-21T04:16:30.736Z,80.54
2018-10-21T04:19:00.605Z,80.50
2018-10-21T04:21:30.767Z,80.58
2018-10-21T04:24:00.533Z,81.10
2018-10-21T04:26:30.569Z,80.80
2018-10-21T04:29:00.529Z,80.68
2018-10-21T04:31:30.246Z,80.54
2018-10-21T04:34:00.165Z,80.39
2018-10-21T04:36:31.676Z,80.62
2018-10-21T04:39:45.548Z,80.75
2018-10-21T04:42:15.312Z,81.57
2018-10-21T04:44:45.336Z,81.80
2018-10-21T04:47:15.376Z,82.22
2018-10-21T04:49:45.181Z,81.81
2018-10-21T04:52:15.278Z,81.71
2018-10-21T04:54:45.019Z,81.75
2018-10-21T04:57:14.782Z,81.10
2018-10-21T04:59:44.567Z,80.41
2018-10-21T05:02:14.377Z,80.50
2018-10-21T05:04:44.126Z,80.67
2018-10-21T05:07:14.000Z,79.88
2018-10-21T05:09:43.801Z,79.48
2018-10-21T05:12:13.772Z,80.06
2018-10-21T05:14:43.589Z,80.59
2018-10-21T05:17:13.548Z,80.19
2018-10-21T05:19:43.426Z,80.50
2018-10-21T05:22:13.312Z,80.51
2018-10-21T05:24:43.029Z,80.91
2018-10-21T05:27:13.010Z,81.39
2018-10-21T05:29:43.066Z,81.09
2018-10-21T05:32:12.930Z,81.40
2018-10-21T05:34:42.986Z,80.67
2018-10-21T05:37:12.852Z,81.04
2018-10-21T05:39:42.905Z,80.51
2018-10-21T05:42:12.722Z,81.07
2018-10-21T05:44:42.598Z,81.92
2018-10-21T05:47:12.548Z,81.28
2018-10-21T05:49:42.248Z,80.73
2018-10-21T05:52:12.148Z,80.69
2018-10-21T05:54:43.206Z,80.04
2018-10-21T05:57:13.294Z,80.35
2018-10-21T05:59:43.631Z,80.53
2018-10-21T06:02:13.537Z,81.15
2018-10-21T06:04:43.494Z,80.45
2018-10-21T06:07:13.396Z,81.00
2018-10-21T06:09:43.320Z,80.36
2018-10-21T06:12:13.152Z,80.32
2018-10-21T06:14:42.977Z,80.62
2018-10-21T06:17:14.764Z,80.50
2018-10-21T06:19:49.473Z,80.34
2018-10-21T06:22:19.433Z,80.07
2018-10-21T06:24:49.374Z,80.21
2018-10-21T06:27:19.215Z,80.04
2018-10-21T06:29:49.075Z,80.17
2018-10-21T06:32:18.974Z,79.93
2018-10-21T06:34:49.138Z,80.04
2018-10-21T06:37:18.930Z,80.39
2018-10-21T06:39:48.787Z,79.80
2018-10-21T06:42:18.596Z,79.70
2018-10-21T06:44:48.656Z,79.53
2018-10-21T06:47:18.610Z,79.42
2018-10-21T06:49:48.602Z,79.02
2018-10-21T06:52:18.555Z,79.35
2018-10-21T06:54:48.596Z,78.69
2018-10-21T06:57:18.625Z,79.33
2018-10-21T06:59:48.555Z,78.92
2018-10-21T07:02:18.389Z,78.07
2018-10-21T07:04:48.337Z,78.66
2018-10-21T07:07:18.224Z,78.61
2018-10-21T07:09:48.157Z,78.81
2018-10-21T07:12:18.013Z,78.68
2018-10-21T07:14:48.089Z,78.67
2018-10-21T07:17:17.887Z,78.12
2018-10-21T07:19:47.848Z,77.79
2018-10-21T07:22:18.031Z,77.85
2018-10-21T07:24:47.791Z,77.35
2018-10-21T07:27:17.709Z,77.65
2018-10-21T07:29:48.101Z,77.71
2018-10-21T07:32:18.236Z,76.97
2018-10-21T07:34:48.289Z,76.43
2018-10-21T07:37:18.347Z,76.70
2018-10-21T07:39:48.198Z,76.94
2018-10-21T07:42:18.196Z,76.35
2018-10-21T07:44:48.385Z,76.01
2018-10-21T07:47:18.438Z,75.27
2018-10-21T07:49:48.397Z,75.04
2018-10-21T07:52:18.132Z,74.56
2018-10-21T07:54:48.005Z,74.77
2018-10-21T07:57:18.956Z,74.67
2018-10-21T07:59:49.475Z,74.38
2018-10-21T08:02:19.375Z,74.05
2018-10-21T08:04:49.351Z,74.91
2018-10-21T08:07:35.849Z,74.23
2018-10-21T08:10:05.993Z,74.02
2018-10-21T08:12:35.941Z,73.92
2018-10-21T08:15:06.194Z,73.46
2018-10-21T08:17:36.005Z,73.22
2018-10-21T08:20:06.700Z,72.01
2018-10-21T08:22:36.701Z,71.89
2018-10-21T08:25:07.045Z,71.98
2018-10-21T08:27:36.926Z,71.39
2018-10-21T08:30:07.103Z,71.79
2018-10-21T08:32:36.940Z,71.70
2018-10-21T08:35:07.709Z,71.20
2018-10-21T08:37:37.584Z,70.55
2018-10-21T08:40:08.085Z,70.25
2018-10-21T08:42:37.980Z,70.36
2018-10-21T08:45:07.846Z,69.64
2018-10-21T08:47:37.803Z,70.08
2018-10-21T08:50:08.235Z,69.54
2018-10-21T08:52:38.080Z,70.90
2018-10-21T08:55:09.115Z,70.12
2018-10-21T08:57:39.213Z,68.98
2018-10-21T09:00:13.004Z,68.28
2018-10-21T09:02:43.365Z,68.34
2018-10-21T09:05:14.536Z,67.83
2018-10-21T09:07:44.912Z,66.85
2018-10-21T09:10:16.244Z,67.72
2018-10-21T09:12:46.013Z,66.49
2018-10-21T09:15:18.105Z,66.35
2018-10-21T09:17:48.269Z,66.34
2018-10-21T09:20:19.304Z,66.30
2018-10-21T09:22:49.164Z,65.49
2018-10-21T09:25:19.119Z,65.81
2018-10-21T09:27:49.094Z,65.58
2018-10-21T09:30:19.153Z,65.82
2018-10-21T09:32:49.160Z,65.98
2018-10-21T09:35:19.670Z,65.55
2018-10-21T09:37:50.103Z,64.84
2018-10-21T09:40:21.004Z,64.73
2018-10-21T09:42:51.093Z,64.53
2018-10-21T09:45:21.481Z,65.06
2018-10-21T09:47:51.413Z,64.37
2018-10-21T09:50:21.341Z,64.81
2018-10-21T09:52:51.171Z,63.65
2018-10-21T09:55:22.304Z,63.99
2018-10-21T09:57:52.274Z,64.17
2018-10-21T10:00:27.086Z,63.92
2018-10-21T10:03:02.178Z,63.34
2018-10-21T10:05:32.271Z,63.90
2018-10-21T10:08:02.118Z,63.43
2018-10-21T10:10:32.015Z,62.80
2018-10-21T10:13:02.018Z,62.02
2018-10-21T10:15:31.893Z,62.41
2018-10-21T10:18:01.923Z,61.26
2018-10-21T10:20:31.827Z,61.05
2018-10-21T10:23:01.721Z,61.40
2018-10-21T10:25:31.646Z,60.98
2018-10-21T10:28:02.038Z,61.69
2018-10-21T10:30:32.068Z,61.69
2018-10-21T10:33:01.788Z,61.08
2018-10-21T10:35:31.838Z,61.25
2018-10-21T10:38:02.196Z,60.93
2018-10-21T10:40:32.129Z,60.50
2018-10-21T10:43:02.140Z,58.91
2018-10-21T10:45:32.020Z,59.49
2018-10-21T10:48:01.899Z,59.17
2018-10-21T10:50:31.906Z,59.69
2018-10-21T10:53:01.931Z,59.58
2018-10-21T10:55:36.801Z,59.26
2018-10-21T10:58:06.917Z,58.73
2018-10-21T11:00:36.740Z,59.58
2018-10-21T11:03:06.796Z,58.96
2018-10-21T11:05:36.669Z,59.03
2018-10-21T11:08:07.145Z,57.98
2018-10-21T11:10:37.153Z,58.83
2018-10-21T11:13:07.119Z,58.05
2018-10-21T11:15:37.389Z,57.86
2018-10-21T11:18:07.894Z,57.97
2018-10-21T11:20:37.711Z,57.32
2018-10-21T11:23:07.834Z,57.29
2018-10-21T11:25:37.720Z,57.45
2018-10-21T11:28:07.804Z,57.20
2018-10-21T11:30:37.786Z,56.51
2018-10-21T11:33:08.373Z,57.50
2018-10-21T11:35:39.017Z,57.42
2018-10-21T11:38:08.928Z,56.42
2018-10-21T11:40:38.765Z,56.37
2018-10-21T11:43:08.893Z,57.01
2018-10-21T11:45:38.829Z,55.53
2018-10-21T11:48:08.917Z,55.93
2018-10-21T11:50:38.859Z,56.40
2018-10-21T11:53:08.745Z,55.10
2018-10-21T11:55:39.884Z,55.18
2018-10-21T11:58:14.447Z,55.22
2018-10-21T12:00:45.935Z,55.15
2018-10-21T12:03:15.708Z,55.70
2018-10-21T12:05:45.521Z,55.40
2018-10-21T12:08:15.575Z,55.04
2018-10-21T12:10:45.541Z,55.18
2018-10-21T12:13:15.748Z,54.70
2018-10-21T12:15:45.785Z,54.68
2018-10-21T12:18:15.611Z,54.53
2018-10-21T12:20:45.692Z,54.88
2018-10-21T12:23:15.865Z,54.11
2018-10-21T12:25:45.894Z,54.60
2018-10-21T12:28:16.034Z,53.67
2018-10-21T12:30:46.054Z,53.82
2018-10-21T12:33:16.505Z,53.29
2018-10-21T12:35:46.398Z,53.06
2018-10-21T12:38:16.592Z,52.16
2018-10-21T12:40:46.539Z,52.33
2018-10-21T12:43:16.518Z,51.86
2018-10-21T12:45:46.570Z,51.11
2018-10-21T12:48:16.456Z,51.39
2018-10-21T12:50:46.646Z,50.67
2018-10-21T12:53:16.813Z,51.21
2018-10-21T12:55:47.713Z,49.97
2018-10-21T12:58:18.225Z,48.39
2018-10-21T13:00:48.344Z,47.71
2018-10-21T13:03:18.386Z,47.47
2018-10-21T13:05:48.434Z,46.66
2018-10-21T13:08:18.626Z,46.13
2018-10-21T13:10:48.693Z,46.70
2018-10-21T13:13:18.600Z,45.82
2018-10-21T13:15:48.692Z,46.35
2018-10-21T13:18:18.887Z,45.20
2018-10-21T13:20:48.891Z,44.85
2018-10-21T13:23:18.870Z,45.71
2018-10-21T13:25:48.940Z,45.20
2018-10-21T13:28:19.314Z,44.67
2018-10-21T13:30:49.093Z,44.91
2018-10-21T13:33:19.325Z,44.80
2018-10-21T13:35:49.361Z,43.93
2018-10-21T13:38:19.761Z,44.44
2018-10-21T13:40:49.897Z,44.69
2018-10-21T13:43:19.879Z,43.84
2018-10-21T13:45:49.751Z,44.27
2018-10-21T13:48:19.889Z,45.01
2018-10-21T13:50:49.934Z,45.14
2018-10-21T13:53:19.868Z,45.11
2018-10-21T13:55:49.788Z,46.10
2018-10-21T13:58:19.740Z,46.47
2018-10-21T14:00:49.720Z,46.06
2018-10-21T14:03:19.747Z,46.20
2018-10-21T14:05:49.698Z,46.58
2018-10-21T14:08:19.491Z,47.33
2018-10-21T14:10:49.540Z,46.59
2018-10-21T14:13:19.541Z,46.54
2018-10-21T14:15:49.517Z,46.68
2018-10-21T14:18:19.491Z,47.60
2018-10-21T14:20:49.574Z,47.02
2018-10-21T14:23:19.528Z,47.41
2018-10-21T14:25:49.466Z,47.05
2018-10-21T14:28:19.437Z,47.58
2018-10-21T14:30:49.364Z,47.56
2018-10-21T14:33:19.479Z,48.00
2018-10-21T14:35:49.668Z,48.17
2018-10-21T14:38:19.585Z,48.55
2018-10-21T14:40:49.433Z,47.89
2018-10-21T14:43:19.393Z,47.84
2018-10-21T14:45:49.403Z,49.01
2018-10-21T14:48:19.478Z,48.76
2018-10-21T14:50:49.291Z,48.68
2018-10-21T14:53:19.204Z,48.62
2018-10-21T14:55:49.375Z,49.16
2018-10-21T14:58:19.488Z,48.67
2018-10-21T15:00:49.389Z,49.30
2018-10-21T15:03:19.506Z,49.62
2018-10-21T15:05:49.403Z,49.11
2018-10-21T15:08:19.550Z,50.02
2018-10-21T15:10:49.559Z,50.15
2018-10-21T15:13:19.584Z,50.19
2018-10-21T15:15:49.387Z,50.91
2018-10-21T15:18:19.567Z,49.99
2018-10-21T15:20:49.365Z,50.22
2018-10-21T15:23:19.258Z,50.30
2018-10-21T15:25:49.252Z,50.78
2018-10-21T15:28:19.814Z,50.51
2018-10-21T15:30:49.865Z,50.86
2018-10-21T15:33:19.828Z,51.35
2018-10-21T15:35:50.145Z,51.64
2018-10-21T15:38:20.223Z,51.58
2018-10-21T15:40:50.090Z,51.72
2018-10-21T15:43:20.033Z,51.10
2018-10-21T15:45:49.917Z,51.63
2018-10-21T15:48:19.841Z,51.88
2018-10-21T15:50:49.625Z,52.37
2018-10-21T15:53:19.585Z,52.19
2018-10-21T15:55:49.777Z,52.02
2018-10-21T15:58:19.629Z,52.00
2018-10-21T16:00:49.666Z,51.87
2018-10-21T16:03:19.561Z,52.86
2018-10-21T16:05:49.566Z,53.37
2018-10-21T16:08:19.673Z,53.46
2018-10-21T16:10:49.760Z,52.69
2018-10-21T16:13:19.540Z,53.74
2018-10-21T16:15:49.705Z,53.62
2018-10-21T16:18:19.758Z,54.09
2018-10-21T16:20:49.892Z,54.56
2018-10-21T16:23:19.793Z,54.74
2018-10-21T16:25:49.703Z,55.54
2018-10-21T16:28:19.528Z,55.67
2018-10-21T16:30:49.292Z,55.99
2018-10-21T16:33:19.101Z,56.86
2018-10-21T16:35:49.167Z,57.45
2018-10-21T16:38:18.986Z,57.52
2018-10-21T16:40:49.122Z,57.99
2018-10-21T16:43:19.344Z,58.45
2018-10-21T16:45:49.369Z,58.03
2018-10-21T16:48:19.137Z,58.62
2018-10-21T16:50:49.318Z,58.79
2018-10-21T16:53:19.164Z,59.57
2018-10-21T16:55:49.129Z,59.93
2018-10-21T16:58:19.093Z,59.55
2018-10-21T17:00:49.007Z,60.28
2018-10-21T17:03:18.980Z,60.44
2018-10-21T17:05:49.031Z,60.12
2018-10-21T17:08:18.799Z,60.98
2018-10-21T17:10:48.840Z,61.23
2018-10-21T17:13:19.128Z,60.70
2018-10-21T17:15:48.836Z,61.49
2018-10-21T17:18:18.958Z,61.69
2018-10-21T17:20:49.046Z,61.15
2018-10-21T17:23:18.947Z,61.48
2018-10-21T17:25:48.828Z,61.80
2018-10-21T17:28:19.106Z,62.53
2018-10-21T17:30:49.116Z,62.38
2018-10-21T17:33:19.141Z,62.82
2018-10-21T17:35:49.170Z,62.76
2018-10-21T17:38:19.095Z,62.74
2018-10-21T17:40:49.116Z,63.60
2018-10-21T17:43:19.326Z,63.13
2018-10-21T17:45:49.426Z,63.47
2018-10-21T17:48:19.620Z,63.60
2018-10-21T17:50:49.508Z,64.56
2018-10-21T17:53:19.383Z,63.96
2018-10-21T17:55:49.387Z,64.08
2018-10-21T17:58:19.510Z,64.22
2018-10-21T18:00:49.264Z,64.56
2018-10-21T18:03:19.389Z,65.09
2018-10-21T18:05:49.391Z,64.92
2018-10-21T18:08:19.374Z,65.74
2018-10-21T18:10:49.454Z,65.68
2018-10-21T18:13:19.412Z,66.05
2018-10-21T18:15:49.513Z,65.58
2018-10-21T18:18:19.415Z,65.91
2018-10-21T18:20:49.512Z,65.99
2018-10-21T18:23:19.417Z,65.68
2018-10-21T18:25:49.349Z,66.22
2018-10-21T18:28:19.459Z,66.33
2018-10-21T18:30:49.369Z,66.68
2018-10-21T18:33:19.299Z,67.12
2018-10-21T18:35:49.269Z,66.92
2018-10-21T18:38:19.215Z,67.48
2018-10-21T18:40:49.240Z,67.70
2018-10-21T18:43:19.225Z,67.84
2018-10-21T18:45:49.231Z,67.25
2018-10-21T18:48:18.995Z,67.46
2018-10-21T18:50:48.989Z,67.33
2018-10-21T18:53:18.833Z,67.61
2018-10-21T18:55:48.748Z,67.58
2018-10-21T18:58:18.707Z,68.41
2018-10-21T19:00:48.675Z,67.96
2018-10-21T19:03:18.603Z,68.06
2018-10-21T19:05:48.527Z,68.23
2018-10-21T19:08:18.476Z,68.97
2018-10-21T19:10:48.691Z,69.04
2018-10-21T19:13:19.037Z,69.25
2018-10-21T19:15:48.828Z,69.26
2018-10-21T19:18:18.809Z,69.36
2018-10-21T19:20:48.577Z,70.16
2018-10-21T19:23:19.029Z,69.65
2018-10-21T19:25:48.921Z,70.44
2018-10-21T19:28:19.014Z,70.58
2018-10-21T19:30:48.971Z,71.09
2018-10-21T19:33:18.802Z,70.56
2018-10-21T19:35:48.920Z,70.67
2018-10-21T19:38:19.153Z,70.62
2018-10-21T19:40:49.052Z,70.83
2018-10-21T19:43:19.068Z,70.44
2018-10-21T19:45:49.267Z,71.13
2018-10-21T19:48:19.327Z,70.72
2018-10-21T19:50:49.511Z,70.57
2018-10-21T19:53:19.663Z,70.84
2018-10-21T19:55:49.757Z,70.65
2018-10-21T19:58:19.694Z,70.64
2018-10-21T20:00:49.948Z,71.08
2018-10-21T20:03:19.927Z,71.27
2018-10-21T20:05:49.895Z,70.79
2018-10-21T20:08:19.885Z,71.57
2018-10-21T20:10:50.021Z,71.55
2018-10-21T20:13:19.873Z,71.58
2018-10-21T20:15:49.848Z,71.69
2018-10-21T20:18:19.797Z,71.38
2018-10-21T20:20:49.561Z,71.87
2018-10-21T20:23:19.602Z,71.96
2018-10-21T20:25:49.461Z,71.81
2018-10-21T20:28:19.341Z,71.60
2018-10-21T20:30:49.358Z,71.99
2018-10-21T20:33:19.277Z,72.51
2018-10-21T20:35:49.266Z,72.73
2018-10-21T20:38:19.124Z,71.81
2018-10-21T20:40:49.180Z,71.73
2018-10-21T20:43:19.100Z,71.57
2018-10-21T20:45:48.976Z,72.70
2018-10-21T20:48:19.011Z,73.06
2018-10-21T20:50:49.164Z,73.69
2018-10-21T20:53:19.337Z,73.62
2018-10-21T20:55:49.155Z,74.43
2018-10-21T20:58:19.222Z,74.26
2018-10-21T21:00:49.005Z,74.51
2018-10-21T21:03:19.218Z,74.04
2018-10-21T21:05:49.179Z,73.73
2018-10-21T21:08:19.166Z,73.66
2018-10-21T21:10:49.341Z,73.88
2018-10-21T21:13:19.349Z,73.98
2018-10-21T21:15:49.249Z,73.52
2018-10-21T21:18:19.199Z,74.15
2018-10-21T21:20:49.059Z,74.27
2018-10-21T21:23:19.053Z,74.74
2018-10-21T21:25:49.056Z,75.25
2018-10-21T21:28:18.944Z,74.41
2018-10-21T21:30:48.846Z,74.21
2018-10-21T21:33:19.201Z,74.25
2018-10-21T21:35:49.171Z,74.24
2018-10-21T21:38:19.108Z,74.78
2018-10-21T21:40:49.013Z,75.14
2018-10-21T21:43:18.964Z,74.69
2018-10-21T21:45:48.893Z,74.63
2018-10-21T21:48:18.921Z,74.44
2018-10-21T21:50:48.790Z,74.33
2018-10-21T21:53:18.767Z,73.71
2018-10-21T21:55:48.656Z,73.58
2018-10-21T21:58:18.683Z,73.56
2018-10-21T22:00:48.729Z,73.76
2018-10-21T22:03:18.565Z,74.73
2018-10-21T22:05:48.551Z,74.25
2018-10-21T22:08:18.503Z,74.00
2018-10-21T22:10:48.373Z,73.72
2018-10-21T22:13:18.344Z,73.14
2018-10-21T22:15:48.388Z,73.77
2018-10-21T22:18:18.502Z,73.78
2018-10-21T22:20:49.313Z,74.49
2018-10-21T22:23:19.398Z,74.20
2018-10-21T22:25:49.378Z,73.56
2018-10-21T22:28:19.562Z,74.25
2018-10-21T22:30:49.501Z,73.71
2018-10-21T22:33:19.543Z,73.99
2018-10-21T22:35:49.418Z,74.28
2018-10-21T22:38:19.357Z,74.21
2018-10-21T22:40:49.192Z,74.13
2018-10-21T22:43:19.240Z,74.54
2018-10-21T22:45:49.227Z,74.31
2018-10-21T22:48:19.336Z,73.91
2018-10-21T22:50:49.185Z,73.75
2018-10-21T22:53:19.074Z,74.21
2018-10-21T22:55:49.093Z,73.02
2018-10-21T22:58:19.476Z,72.36
2018-10-21T23:00:49.631Z,72.91
2018-10-21T23:03:19.628Z,72.76
2018-10-21T23:05:49.500Z,72.77
2018-10-21T23:08:19.573Z,72.44
2018-10-21T23:10:49.567Z,72.12
2018-10-21T23:13:19.455Z,72.62
2018-10-21T23:15:49.254Z,72.96
2018-10-21T23:18:19.223Z,72.25
2018-10-21T23:20:49.206Z,72.23
2018-10-21T23:23:19.145Z,72.26
2018-10-21T23:25:49.008Z,72.16
2018-10-21T23:28:18.915Z,72.03
2018-10-21T23:30:48.963Z,71.91
2018-10-21T23:33:18.924Z,71.31
2018-10-21T23:35:48.870Z,71.40
2018-10-21T23:38:18.885Z,71.67
2018-10-21T23:40:48.839Z,71.83
2018-10-21T23:43:18.813Z,71.61
2018-10-21T23:45:48.936Z,71.65
2018-10-21T23:48:18.984Z,71.35
2018-10-21T23:50:48.964Z,70.96
2018-10-21T23:53:18.802Z,70.38
2018-10-21T23:55:48.742Z,70.05
2018-10-21T23:58:19.731Z,70.48
